KPDT/PDT METAR and TAF weather

Enter ICAO airport designator
Station Type Date Time Source
KPDT METAR 2018/12/13 07:53 UTC NOAA

KPDT 130753Z AUTO 18008KT 10SM BKN085 03/M05 A3024 RMK AO2 SLP241 T00331050 400830017 $


Station Type Date Time Source
KPDT Decoded METAR 2018/12/13 07:53 UTC NOAA

PENDLETON MUNICIPAL AIRPORT, OR, United States (KPDT) 45-70N 118-83W 458M
Dec 13, 2018 - 02:53 AM EST / 2018.12.13 0753 UTC
Wind: from the S (180 degrees) at 9 MPH (8 KT):0
Visibility: 10 mile(s):0
Sky conditions: mostly cloudy
Temperature: 37.9 F (3.3 C)
Dew Point: 23.0 F (-5.0 C)
Relative Humidity: 54%
Pressure (altimeter): 30.24 in. Hg (1024 hPa)
ob: KPDT 130753Z AUTO 18008KT 10SM BKN085 03/M05 A3024 RMK AO2 SLP241 T00331050 400830017
cycle: 8

Station Type Date Time Source
KPDT TAF 2018/12/13 06:22 UTC NOAA

TAF KPDT 130520Z 1306/1406 17008KT P6SM SCT080 BKN150
FM130900 17007KT P6SM SCT070 BKN090
FM131500 16009KT P6SM SCT120 BKN200


Example: see airport list